createdAt,value
2022-10-03T00:01:29.694Z,73.14
2022-10-03T00:04:23.481Z,73.14
2022-10-03T00:06:56.330Z,72.49
2022-10-03T00:09:28.723Z,73.24
2022-10-03T00:12:10.336Z,72.66
2022-10-03T00:15:12.284Z,73.20
2022-10-03T00:17:52.483Z,72.90
2022-10-03T00:20:31.338Z,72.81
2022-10-03T00:23:07.121Z,72.99
2022-10-03T00:25:44.048Z,73.24
2022-10-03T00:28:29.066Z,72.68
2022-10-03T00:31:01.489Z,73.03
2022-10-03T00:33:40.067Z,73.14
2022-10-03T00:36:22.005Z,73.54
2022-10-03T00:39:30.240Z,72.78
2022-10-03T00:42:39.942Z,73.50
2022-10-03T00:45:18.837Z,73.36
2022-10-03T00:48:02.160Z,72.77
2022-10-03T00:50:56.131Z,72.80
2022-10-03T00:53:48.496Z,72.65
2022-10-03T00:56:21.795Z,72.82
2022-10-03T00:59:16.261Z,73.16
2022-10-03T01:01:48.336Z,72.81
2022-10-03T01:04:41.126Z,73.26
2022-10-03T01:07:26.318Z,72.98
2022-10-03T01:10:31.329Z,72.74
2022-10-03T01:13:17.672Z,73.15
2022-10-03T01:15:57.125Z,73.05
2022-10-03T01:18:29.454Z,72.96
2022-10-03T01:21:11.203Z,72.73
2022-10-03T01:24:23.346Z,72.85
2022-10-03T01:26:53.944Z,73.35
2022-10-03T01:29:59.889Z,73.44
2022-10-03T01:33:03.790Z,72.99
2022-10-03T01:35:55.591Z,73.87
2022-10-03T01:38:30.493Z,72.99
2022-10-03T01:41:05.467Z,73.04
2022-10-03T01:43:50.362Z,73.44
2022-10-03T01:46:23.633Z,73.11
2022-10-03T01:49:09.504Z,73.21
2022-10-03T01:51:51.293Z,73.89
2022-10-03T01:54:55.137Z,73.64
2022-10-03T01:57:35.870Z,73.21
2022-10-03T02:00:10.536Z,72.64
2022-10-03T02:02:47.079Z,73.14
2022-10-03T02:05:48.147Z,73.73
2022-10-03T02:08:17.929Z,73.37
2022-10-03T02:11:04.006Z,73.14
2022-10-03T02:13:50.717Z,72.65
2022-10-03T02:16:35.558Z,73.37
2022-10-03T02:19:11.914Z,73.07
2022-10-03T02:21:53.404Z,73.17
2022-10-03T02:24:39.750Z,73.66
2022-10-03T02:27:36.272Z,73.35
2022-10-03T02:30:13.092Z,73.01
2022-10-03T02:33:01.071Z,73.57
2022-10-03T02:36:12.822Z,72.98
2022-10-03T02:39:00.739Z,73.10
2022-10-03T02:41:49.170Z,72.81
2022-10-03T02:44:36.034Z,72.96
2022-10-03T02:47:24.483Z,73.05
2022-10-03T02:50:14.803Z,73.02
2022-10-03T02:53:07.643Z,73.08
2022-10-03T02:56:11.530Z,73.06
2022-10-03T02:58:54.504Z,72.73
2022-10-03T03:01:55.021Z,72.83
2022-10-03T03:04:37.405Z,72.73
2022-10-03T03:07:15.721Z,72.82
2022-10-03T03:10:12.876Z,71.98
2022-10-03T03:12:49.092Z,72.24
2022-10-03T03:15:34.151Z,72.64
2022-10-03T03:18:11.287Z,72.48
2022-10-03T03:21:08.461Z,72.29
2022-10-03T03:24:05.825Z,72.04
2022-10-03T03:26:52.948Z,72.42
2022-10-03T03:29:40.746Z,72.10
2022-10-03T03:32:31.147Z,71.83
2022-10-03T03:35:32.903Z,72.16
2022-10-03T03:38:13.082Z,72.58
2022-10-03T03:40:58.013Z,71.74
2022-10-03T03:43:30.384Z,72.26
2022-10-03T03:46:32.864Z,71.82
2022-10-03T03:49:09.637Z,71.68
2022-10-03T03:51:43.449Z,72.10
2022-10-03T03:54:28.439Z,72.17
2022-10-03T03:57:21.963Z,72.27
2022-10-03T03:59:57.477Z,72.11
2022-10-03T04:02:44.767Z,71.55
2022-10-03T04:05:42.106Z,71.51
2022-10-03T04:08:45.882Z,72.11
2022-10-03T04:11:37.995Z,71.55
2022-10-03T04:14:28.305Z,71.50
2022-10-03T04:17:30.122Z,71.90
2022-10-03T04:20:28.120Z,71.81
2022-10-03T04:23:40.389Z,72.06
2022-10-03T04:26:25.479Z,71.50
2022-10-03T04:28:58.853Z,71.98
2022-10-03T04:31:41.840Z,71.43
2022-10-03T04:34:37.793Z,71.25
2022-10-03T04:37:11.911Z,71.75
2022-10-03T04:39:57.162Z,71.66
2022-10-03T04:42:34.320Z,72.39
2022-10-03T04:45:29.098Z,72.19
2022-10-03T04:48:28.996Z,72.75
2022-10-03T04:51:08.948Z,72.49
2022-10-03T04:53:42.351Z,71.94
2022-10-03T04:56:41.049Z,73.03
2022-10-03T04:59:50.976Z,73.46
2022-10-03T05:02:33.469Z,73.33
2022-10-03T05:05:00.286Z,73.32
2022-10-03T05:07:48.546Z,72.98
2022-10-03T05:10:39.550Z,72.59
2022-10-03T05:13:16.855Z,73.08
2022-10-03T05:15:46.487Z,73.06
2022-10-03T05:18:37.798Z,73.50
2022-10-03T05:21:22.587Z,72.84
2022-10-03T05:24:04.461Z,73.12
2022-10-03T05:26:58.994Z,72.78
2022-10-03T05:29:34.955Z,72.96
2022-10-03T05:32:42.010Z,72.45
2022-10-03T05:35:27.259Z,72.75
2022-10-03T05:38:46.420Z,72.46
2022-10-03T05:41:38.487Z,72.47
2022-10-03T05:44:06.925Z,72.74
2022-10-03T05:46:47.538Z,72.46
2022-10-03T05:49:27.542Z,72.48
2022-10-03T05:52:06.347Z,72.61
2022-10-03T05:54:50.955Z,72.51
2022-10-03T05:57:23.624Z,72.68
2022-10-03T06:00:07.028Z,71.89
2022-10-03T06:02:51.951Z,71.75
2022-10-03T06:05:25.321Z,72.27
2022-10-03T06:08:14.580Z,71.71
2022-10-03T06:11:02.726Z,72.30
2022-10-03T06:13:53.890Z,72.25
2022-10-03T06:16:23.579Z,72.00
2022-10-03T06:19:17.783Z,71.66
2022-10-03T06:22:06.028Z,71.57
2022-10-03T06:25:09.754Z,72.18
2022-10-03T06:27:59.702Z,71.71
2022-10-03T06:30:44.846Z,72.18
2022-10-03T06:33:27.792Z,72.62
2022-10-03T06:36:09.318Z,72.76
2022-10-03T06:39:05.212Z,72.45
2022-10-03T06:41:51.261Z,71.98
2022-10-03T06:44:44.559Z,72.17
2022-10-03T06:47:36.767Z,72.25
2022-10-03T06:50:13.093Z,71.51
2022-10-03T06:52:51.735Z,71.60
2022-10-03T06:55:36.586Z,72.22
2022-10-03T06:58:51.331Z,71.26
2022-10-03T07:01:43.097Z,71.55
2022-10-03T07:04:45.594Z,71.30
2022-10-03T07:07:30.756Z,71.76
2022-10-03T07:10:20.863Z,71.69
2022-10-03T07:12:54.338Z,71.45
2022-10-03T07:16:08.792Z,71.28
2022-10-03T07:18:40.759Z,72.06
2022-10-03T07:21:40.649Z,71.62
2022-10-03T07:24:28.769Z,71.44
2022-10-03T07:27:08.908Z,71.04
2022-10-03T07:29:58.582Z,71.69
2022-10-03T07:32:58.398Z,71.25
2022-10-03T07:35:55.644Z,70.81
2022-10-03T07:38:59.175Z,71.22
2022-10-03T07:41:44.636Z,71.29
2022-10-03T07:44:42.679Z,71.27
2022-10-03T07:47:21.089Z,71.33
2022-10-03T07:49:47.617Z,71.58
2022-10-03T07:52:40.424Z,70.88
2022-10-03T07:55:12.847Z,71.22
2022-10-03T07:58:03.384Z,71.55
2022-10-03T08:00:56.241Z,71.06
2022-10-03T08:03:57.013Z,71.05
2022-10-03T08:06:28.681Z,71.61
2022-10-03T08:09:15.766Z,71.00
2022-10-03T08:12:15.170Z,71.13
2022-10-03T08:14:41.693Z,71.39
2022-10-03T08:17:26.759Z,71.12
2022-10-03T08:20:11.968Z,71.00
2022-10-03T08:22:53.996Z,71.52
2022-10-03T08:25:39.025Z,70.93
2022-10-03T08:28:24.473Z,71.59
2022-10-03T08:31:01.113Z,71.64
2022-10-03T08:33:49.373Z,70.96
2022-10-03T08:36:31.082Z,71.65
2022-10-03T08:39:11.596Z,71.74
2022-10-03T08:42:05.727Z,71.82
2022-10-03T08:45:22.789Z,71.06
2022-10-03T08:48:26.792Z,71.10
2022-10-03T08:51:15.979Z,71.16
2022-10-03T08:53:51.999Z,71.50
2022-10-03T08:56:24.678Z,70.84
2022-10-03T08:59:02.122Z,70.79
2022-10-03T09:01:41.088Z,70.88
2022-10-03T09:04:48.983Z,71.36
2022-10-03T09:07:28.866Z,70.63
2022-10-03T09:10:10.649Z,70.71
2022-10-03T09:12:49.035Z,70.85
2022-10-03T09:15:44.159Z,70.62
2022-10-03T09:18:33.802Z,71.19
2022-10-03T09:21:09.626Z,70.29
2022-10-03T09:23:45.605Z,70.37
2022-10-03T09:26:44.929Z,70.77
2022-10-03T09:29:26.423Z,70.39
2022-10-03T09:32:06.026Z,70.54
2022-10-03T09:34:35.407Z,70.88
2022-10-03T09:37:41.204Z,70.83
2022-10-03T09:40:39.203Z,70.16
2022-10-03T09:43:12.239Z,70.13
2022-10-03T09:45:54.929Z,70.02
2022-10-03T09:48:36.637Z,70.22
2022-10-03T09:51:25.313Z,69.07
2022-10-03T09:54:40.219Z,69.44
2022-10-03T09:57:13.131Z,69.12
2022-10-03T09:59:52.242Z,69.17
2022-10-03T10:02:46.515Z,69.27
2022-10-03T10:05:46.259Z,69.28
2022-10-03T10:08:37.507Z,69.30
2022-10-03T10:11:22.436Z,69.22
2022-10-03T10:14:19.864Z,68.78
2022-10-03T10:17:23.949Z,68.90
2022-10-03T10:20:37.019Z,69.04
2022-10-03T10:23:24.690Z,69.03
2022-10-03T10:26:04.712Z,68.39
2022-10-03T10:29:16.439Z,68.59
2022-10-03T10:31:46.065Z,68.23
2022-10-03T10:35:06.963Z,68.83
2022-10-03T10:38:11.272Z,67.85
2022-10-03T10:40:44.369Z,68.55
2022-10-03T10:43:43.684Z,68.13
2022-10-03T10:46:33.038Z,68.38
2022-10-03T10:49:03.978Z,67.79
2022-10-03T10:51:41.872Z,67.57
2022-10-03T10:54:39.869Z,67.23
2022-10-03T10:57:24.207Z,66.96
2022-10-03T11:00:18.865Z,67.63
2022-10-03T11:03:14.419Z,66.78
2022-10-03T11:06:18.045Z,67.02
2022-10-03T11:09:21.694Z,66.15
2022-10-03T11:12:25.750Z,65.94
2022-10-03T11:15:04.325Z,66.19
2022-10-03T11:18:06.511Z,66.81
2022-10-03T11:20:47.881Z,66.49
2022-10-03T11:23:33.053Z,66.49
2022-10-03T11:25:59.569Z,66.80
2022-10-03T11:28:32.465Z,66.69
2022-10-03T11:31:29.665Z,66.75
2022-10-03T11:34:21.541Z,67.06
2022-10-03T11:36:57.751Z,67.81
2022-10-03T11:39:56.055Z,67.83
2022-10-03T11:42:59.011Z,67.82
2022-10-03T11:45:33.189Z,67.34
2022-10-03T11:48:05.895Z,67.63
2022-10-03T11:50:47.758Z,67.53
2022-10-03T11:53:36.060Z,67.27
2022-10-03T11:56:21.488Z,67.21
2022-10-03T11:58:57.610Z,67.07
2022-10-03T12:01:34.382Z,67.19
2022-10-03T12:04:03.957Z,66.71
2022-10-03T12:07:17.360Z,66.67
2022-10-03T12:10:02.999Z,67.25
2022-10-03T12:12:43.348Z,67.46
2022-10-03T12:15:22.044Z,67.46
2022-10-03T12:18:04.763Z,67.42
2022-10-03T12:21:09.127Z,67.21
2022-10-03T12:24:12.880Z,68.14
2022-10-03T12:26:52.347Z,67.67
2022-10-03T12:29:21.830Z,67.80
2022-10-03T12:31:48.467Z,68.20
2022-10-03T12:34:20.869Z,67.89
2022-10-03T12:37:13.687Z,67.67
2022-10-03T12:39:53.732Z,68.05
2022-10-03T12:42:28.849Z,68.21
2022-10-03T12:44:58.055Z,67.97
2022-10-03T12:47:58.443Z,68.35
2022-10-03T12:50:43.338Z,68.07
2022-10-03T12:53:16.064Z,68.54
2022-10-03T12:55:53.507Z,68.30
2022-10-03T12:58:30.086Z,68.55
2022-10-03T13:01:17.087Z,68.18
2022-10-03T13:04:05.750Z,68.59
2022-10-03T13:07:03.850Z,68.34
2022-10-03T13:09:31.106Z,69.25
2022-10-03T13:12:09.837Z,68.36
2022-10-03T13:15:03.494Z,68.85
2022-10-03T13:17:49.527Z,68.96
2022-10-03T13:20:30.178Z,69.47
2022-10-03T13:22:59.730Z,69.42
2022-10-03T13:25:45.785Z,69.24
2022-10-03T13:28:31.597Z,68.60
2022-10-03T13:31:22.528Z,68.54
2022-10-03T13:33:55.550Z,68.73
2022-10-03T13:36:29.200Z,69.25
2022-10-03T13:39:08.184Z,68.45
2022-10-03T13:41:42.699Z,69.19
2022-10-03T13:44:55.605Z,69.00
2022-10-03T13:47:44.992Z,69.21
2022-10-03T13:50:18.806Z,69.20
2022-10-03T13:53:01.279Z,69.49
2022-10-03T13:55:53.892Z,69.74
2022-10-03T13:58:27.843Z,69.09
2022-10-03T14:01:21.786Z,69.66
2022-10-03T14:04:06.891Z,69.05
2022-10-03T14:06:48.262Z,69.15
2022-10-03T14:09:52.400Z,68.14
2022-10-03T14:12:28.205Z,68.16
2022-10-03T14:15:20.826Z,68.17
2022-10-03T14:18:24.848Z,68.83
2022-10-03T14:21:16.087Z,68.66
2022-10-03T14:23:49.466Z,69.00
2022-10-03T14:26:26.453Z,68.63
2022-10-03T14:29:11.690Z,69.03
2022-10-03T14:32:03.272Z,68.97
2022-10-03T14:34:51.350Z,69.35
2022-10-03T14:37:30.774Z,68.98
2022-10-03T14:40:00.227Z,69.02
2022-10-03T14:42:35.679Z,69.05
2022-10-03T14:45:08.577Z,68.61
2022-10-03T14:47:38.077Z,68.29
2022-10-03T14:50:05.686Z,67.67
2022-10-03T14:52:41.376Z,66.24
2022-10-03T14:55:29.849Z,65.42
2022-10-03T14:58:16.706Z,65.75
2022-10-03T15:00:48.851Z,65.28
2022-10-03T15:03:23.079Z,64.76
2022-10-03T15:06:04.938Z,65.85
2022-10-03T15:08:37.815Z,66.73
2022-10-03T15:11:06.554Z,66.77
2022-10-03T15:13:58.375Z,65.33
2022-10-03T15:16:25.756Z,66.09
2022-10-03T15:18:56.522Z,66.40
2022-10-03T15:21:24.946Z,67.50
2022-10-03T15:24:04.250Z,66.92
2022-10-03T15:26:35.115Z,67.13
2022-10-03T15:29:03.941Z,67.62
2022-10-03T15:31:31.359Z,67.91
2022-10-03T15:33:59.188Z,67.77
2022-10-03T15:36:29.487Z,67.81
2022-10-03T15:39:00.629Z,67.87
2022-10-03T15:41:32.207Z,68.23
2022-10-03T15:44:04.866Z,67.55
2022-10-03T15:46:42.910Z,68.03
2022-10-03T15:49:14.770Z,68.18
2022-10-03T15:51:43.940Z,68.40
2022-10-03T15:54:17.965Z,68.10
2022-10-03T15:56:46.390Z,67.90
2022-10-03T15:59:25.663Z,68.45
2022-10-03T16:01:53.880Z,68.19
2022-10-03T16:04:27.393Z,68.18
2022-10-03T16:07:15.683Z,68.09
2022-10-03T16:10:04.250Z,68.63
2022-10-03T16:12:52.057Z,68.10
2022-10-03T16:15:26.710Z,68.41
2022-10-03T16:17:53.220Z,68.30
2022-10-03T16:20:26.560Z,68.61
2022-10-03T16:22:59.154Z,68.18
2022-10-03T16:25:28.866Z,68.90
2022-10-03T16:28:02.161Z,68.35
2022-10-03T16:30:34.336Z,68.86
2022-10-03T16:33:10.123Z,69.03
2022-10-03T16:35:48.700Z,68.76
2022-10-03T16:38:27.678Z,68.28
2022-10-03T16:41:01.870Z,68.71
2022-10-03T16:43:31.488Z,68.54
2022-10-03T16:46:00.611Z,68.34
2022-10-03T16:48:47.741Z,69.00
2022-10-03T16:51:18.628Z,68.34
2022-10-03T16:53:45.983Z,68.92
2022-10-03T16:56:16.251Z,68.77
2022-10-03T16:58:51.801Z,68.43
2022-10-03T17:01:39.629Z,68.71
2022-10-03T17:04:39.136Z,68.62
2022-10-03T17:07:14.563Z,68.32
2022-10-03T17:09:51.720Z,68.30
2022-10-03T17:12:43.465Z,68.73
2022-10-03T17:15:20.879Z,68.61
2022-10-03T17:18:01.568Z,68.45
2022-10-03T17:20:49.816Z,68.33
2022-10-03T17:23:37.215Z,68.51
2022-10-03T17:26:12.004Z,69.00
2022-10-03T17:28:46.434Z,68.86
2022-10-03T17:31:44.039Z,69.72
2022-10-03T17:34:29.367Z,69.73
2022-10-03T17:37:04.297Z,69.97
2022-10-03T17:40:10.066Z,70.31
2022-10-03T17:42:43.258Z,70.62
2022-10-03T17:45:44.077Z,70.64
2022-10-03T17:48:17.243Z,70.85
2022-10-03T17:51:04.957Z,71.11
2022-10-03T17:53:33.847Z,71.52
2022-10-03T17:56:20.711Z,71.83
2022-10-03T17:58:52.388Z,71.62
2022-10-03T18:01:22.612Z,71.91
2022-10-03T18:03:53.568Z,72.11
2022-10-03T18:06:29.653Z,72.33
2022-10-03T18:08:56.732Z,72.19
2022-10-03T18:11:26.374Z,71.79
2022-10-03T18:14:27.491Z,72.60
2022-10-03T18:17:06.976Z,72.11
2022-10-03T18:20:02.393Z,72.05
2022-10-03T18:22:37.185Z,72.16
2022-10-03T18:25:35.909Z,72.48
2022-10-03T18:28:23.700Z,72.15
2022-10-03T18:30:58.693Z,72.27
2022-10-03T18:33:32.663Z,73.01
2022-10-03T18:36:08.281Z,72.34
2022-10-03T18:38:35.718Z,72.75
2022-10-03T18:41:05.181Z,71.78
2022-10-03T18:43:47.715Z,72.34
2022-10-03T18:46:19.464Z,71.90
2022-10-03T18:49:28.363Z,72.17
2022-10-03T18:52:06.978Z,72.44
2022-10-03T18:54:55.580Z,72.82
2022-10-03T18:57:29.796Z,72.43
2022-10-03T19:00:06.375Z,72.46
2022-10-03T19:02:40.407Z,72.43
2022-10-03T19:05:13.124Z,72.88
2022-10-03T19:07:50.462Z,72.30
2022-10-03T19:10:16.993Z,72.37
2022-10-03T19:12:47.983Z,72.75
2022-10-03T19:15:48.645Z,72.40
2022-10-03T19:18:56.081Z,73.13
2022-10-03T19:21:22.879Z,72.71
2022-10-03T19:23:59.039Z,72.85
2022-10-03T19:26:35.525Z,72.69
2022-10-03T19:29:12.661Z,72.57
2022-10-03T19:31:41.980Z,73.00
2022-10-03T19:34:20.405Z,73.36
2022-10-03T19:36:49.877Z,73.15
2022-10-03T19:39:17.618Z,72.72
2022-10-03T19:41:52.579Z,73.22
2022-10-03T19:44:22.064Z,72.69
2022-10-03T19:47:01.834Z,72.77
2022-10-03T19:49:49.252Z,73.10
2022-10-03T19:52:21.432Z,73.56
2022-10-03T19:54:47.934Z,73.39
2022-10-03T19:57:17.583Z,73.71
2022-10-03T19:59:47.284Z,73.96
2022-10-03T20:02:14.121Z,73.42
2022-10-03T20:04:41.044Z,73.99
2022-10-03T20:07:17.486Z,73.66
2022-10-03T20:09:56.211Z,74.02
2022-10-03T20:12:26.508Z,74.22
2022-10-03T20:14:53.097Z,74.76
2022-10-03T20:17:21.944Z,74.55
2022-10-03T20:20:04.957Z,74.40
2022-10-03T20:22:36.456Z,74.63
2022-10-03T20:25:06.899Z,75.13
2022-10-03T20:27:40.755Z,75.41
2022-10-03T20:30:24.792Z,75.13
2022-10-03T20:32:52.737Z,75.23
2022-10-03T20:35:25.627Z,75.79
2022-10-03T20:38:02.692Z,75.60
2022-10-03T20:40:38.534Z,75.82
2022-10-03T20:43:19.788Z,75.45
2022-10-03T20:45:58.024Z,75.60
2022-10-03T20:48:25.273Z,75.67
2022-10-03T20:50:52.813Z,75.75
2022-10-03T20:53:22.428Z,75.97
2022-10-03T20:55:56.037Z,76.40
2022-10-03T20:59:00.739Z,76.27
2022-10-03T21:01:28.436Z,76.21
2022-10-03T21:04:00.908Z,76.62
2022-10-03T21:06:31.539Z,76.20
2022-10-03T21:09:01.326Z,75.96
2022-10-03T21:11:29.564Z,76.76
2022-10-03T21:13:59.129Z,76.27
2022-10-03T21:16:32.295Z,76.79
2022-10-03T21:19:28.131Z,76.55
2022-10-03T21:21:56.941Z,76.99
2022-10-03T21:24:30.654Z,76.62
2022-10-03T21:27:00.746Z,76.47
2022-10-03T21:29:32.670Z,76.85
2022-10-03T21:32:21.618Z,76.74
2022-10-03T21:34:57.318Z,77.08
2022-10-03T21:37:42.127Z,77.15
2022-10-03T21:40:42.790Z,76.75
2022-10-03T21:43:37.073Z,77.17
2022-10-03T21:46:37.751Z,77.18
2022-10-03T21:49:39.000Z,76.72
2022-10-03T21:52:17.672Z,76.53
2022-10-03T21:55:05.705Z,77.18
2022-10-03T21:58:03.117Z,76.92
2022-10-03T22:00:49.421Z,77.07
2022-10-03T22:03:52.577Z,77.62
2022-10-03T22:06:28.467Z,77.31
2022-10-03T22:09:01.741Z,77.50
2022-10-03T22:11:28.492Z,77.42
2022-10-03T22:14:03.559Z,77.66
2022-10-03T22:16:44.626Z,78.32
2022-10-03T22:19:27.717Z,77.66
2022-10-03T22:22:19.337Z,77.87
2022-10-03T22:25:23.586Z,78.24
2022-10-03T22:28:21.088Z,77.79
2022-10-03T22:30:56.372Z,77.71
2022-10-03T22:33:32.547Z,77.36
2022-10-03T22:36:03.446Z,77.32
2022-10-03T22:38:32.332Z,77.23
2022-10-03T22:41:01.711Z,77.27
2022-10-03T22:43:28.904Z,77.46
2022-10-03T22:45:57.199Z,77.55
2022-10-03T22:48:27.920Z,77.69
2022-10-03T22:50:55.579Z,77.75
2022-10-03T22:53:25.496Z,77.46
2022-10-03T22:55:55.163Z,77.84
2022-10-03T22:58:23.043Z,77.90
2022-10-03T23:00:52.226Z,77.80
2022-10-03T23:03:32.552Z,77.28
2022-10-03T23:06:11.635Z,77.70
2022-10-03T23:08:56.442Z,77.81
2022-10-03T23:11:24.103Z,77.91
2022-10-03T23:13:50.814Z,77.69
2022-10-03T23:16:25.506Z,77.35
2022-10-03T23:19:25.684Z,77.76
2022-10-03T23:21:53.053Z,77.63
2022-10-03T23:24:43.852Z,77.81
2022-10-03T23:27:26.499Z,77.75
2022-10-03T23:30:25.694Z,77.30
2022-10-03T23:32:54.513Z,77.37
2022-10-03T23:35:30.309Z,77.21
2022-10-03T23:37:58.055Z,77.16
2022-10-03T23:40:47.125Z,77.06
2022-10-03T23:43:37.133Z,77.47
2022-10-03T23:46:05.765Z,77.38
2022-10-03T23:48:40.181Z,77.43
2022-10-03T23:51:07.309Z,77.14
2022-10-03T23:53:38.874Z,77.48
2022-10-03T23:56:23.976Z,77.31
2022-10-03T23:59:02.789Z,76.92
